Carrollton, Ohio
Current Conditions -  °F | °C
As of 7:53 AM on Monday 22 Dec 2014 (Local Time) from KPHD Reporting Station
Haze Haze  
Wind Chill: 23°   Ceiling: 4400
Heat Index: 23°   Visibility: 6mi
Dew Point: 19°   Wind: 0mph
Humidity: 85%   Direction: NA
Pressure: 30.12"   Gusts: NA
Location:  40.57°N, 81.09°W
Report Text: KPHD 221253Z AUTO 00000KT 6SM BR OVC044 M05/M07 A3012 RMK AO2 SLP211 T10501072
Loading
Personal Weather Stations






























Interactive Weather Map New forecast layout! Learn more

10-Day Weather Forecast

Advertisements
Track Severe Weather on mobile